sensor_id;sensor_type;location;lat;lon;timestamp;P1;durP1;ratioP1;P2;durP2;ratioP2
77262;SDS011;66373;52.334;4.806;2023-08-12T00:02:34;2.08;;;1.90;;
77262;SDS011;66373;52.334;4.806;2023-08-12T00:05:07;2.30;;;1.90;;
77262;SDS011;66373;52.334;4.806;2023-08-12T00:07:38;3.35;;;2.08;;
77262;SDS011;66373;52.334;4.806;2023-08-12T00:10:07;1.83;;;1.73;;
77262;SDS011;66373;52.334;4.806;2023-08-12T00:12:40;3.00;;;2.08;;
77262;SDS011;66373;52.334;4.806;2023-08-12T00:15:09;2.60;;;2.10;;
77262;SDS011;66373;52.334;4.806;2023-08-12T00:17:37;3.55;;;2.08;;
77262;SDS011;66373;52.334;4.806;2023-08-12T00:20:07;2.13;;;1.92;;
77262;SDS011;66373;52.334;4.806;2023-08-12T00:22:36;2.20;;;2.00;;
77262;SDS011;66373;52.334;4.806;2023-08-12T00:25:05;3.20;;;2.10;;
77262;SDS011;66373;52.334;4.806;2023-08-12T00:27:33;3.13;;;1.98;;
77262;SDS011;66373;52.334;4.806;2023-08-12T00:30:00;3.58;;;2.05;;
77262;SDS011;66373;52.334;4.806;2023-08-12T00:32:27;3.70;;;2.13;;
77262;SDS011;66373;52.334;4.806;2023-08-12T00:34:54;2.67;;;2.17;;
77262;SDS011;66373;52.334;4.806;2023-08-12T00:37:21;2.20;;;2.03;;
77262;SDS011;66373;52.334;4.806;2023-08-12T00:39:48;4.85;;;2.78;;
77262;SDS011;66373;52.334;4.806;2023-08-12T00:42:17;3.28;;;2.30;;
77262;SDS011;66373;52.334;4.806;2023-08-12T00:44:44;2.33;;;2.00;;
77262;SDS011;66373;52.334;4.806;2023-08-12T00:47:11;2.30;;;2.10;;
77262;SDS011;66373;52.334;4.806;2023-08-12T00:49:38;2.42;;;2.22;;
77262;SDS011;66373;52.334;4.806;2023-08-12T00:52:10;2.28;;;2.08;;
77262;SDS011;66373;52.334;4.806;2023-08-12T00:54:38;2.78;;;2.08;;
77262;SDS011;66373;52.334;4.806;2023-08-12T00:57:05;3.92;;;2.50;;
77262;SDS011;66373;52.334;4.806;2023-08-12T00:59:35;2.92;;;2.08;;
77262;SDS011;66373;52.334;4.806;2023-08-12T01:02:03;3.88;;;2.60;;
77262;SDS011;66373;52.334;4.806;2023-08-12T01:04:31;3.90;;;2.25;;
77262;SDS011;66373;52.334;4.806;2023-08-12T01:06:58;2.30;;;2.00;;
77262;SDS011;66373;52.334;4.806;2023-08-12T01:09:27;2.30;;;2.10;;
77262;SDS011;66373;52.334;4.806;2023-08-12T01:11:55;3.90;;;2.28;;
77262;SDS011;66373;52.334;4.806;2023-08-12T01:14:30;3.13;;;2.35;;
77262;SDS011;66373;52.334;4.806;2023-08-12T01:17:05;3.28;;;2.10;;
77262;SDS011;66373;52.334;4.806;2023-08-12T01:19:35;2.72;;;2.30;;
77262;SDS011;66373;52.334;4.806;2023-08-12T01:22:04;2.72;;;2.15;;
77262;SDS011;66373;52.334;4.806;2023-08-12T01:24:36;3.25;;;2.35;;
77262;SDS011;66373;52.334;4.806;2023-08-12T01:27:05;3.03;;;2.30;;
77262;SDS011;66373;52.334;4.806;2023-08-12T01:29:33;3.25;;;2.17;;
77262;SDS011;66373;52.334;4.806;2023-08-12T01:32:04;3.35;;;2.10;;
77262;SDS011;66373;52.334;4.806;2023-08-12T01:34:42;2.80;;;2.33;;
77262;SDS011;66373;52.334;4.806;2023-08-12T01:37:14;4.53;;;2.53;;
77262;SDS011;66373;52.334;4.806;2023-08-12T01:39:50;2.38;;;2.17;;
77262;SDS011;66373;52.334;4.806;2023-08-12T01:44:47;3.30;;;1.95;;
77262;SDS011;66373;52.334;4.806;2023-08-12T01:47:14;2.80;;;2.22;;
77262;SDS011;66373;52.334;4.806;2023-08-12T01:49:41;3.22;;;2.33;;
77262;SDS011;66373;52.334;4.806;2023-08-12T01:52:08;3.45;;;2.35;;
77262;SDS011;66373;52.334;4.806;2023-08-12T01:54:35;2.83;;;2.30;;
77262;SDS011;66373;52.334;4.806;2023-08-12T01:57:04;2.75;;;2.30;;
77262;SDS011;66373;52.334;4.806;2023-08-12T01:59:33;2.33;;;2.13;;
77262;SDS011;66373;52.334;4.806;2023-08-12T02:02:00;2.83;;;2.08;;
77262;SDS011;66373;52.334;4.806;2023-08-12T02:04:27;3.15;;;2.10;;
77262;SDS011;66373;52.334;4.806;2023-08-12T02:06:55;3.60;;;2.65;;
77262;SDS011;66373;52.334;4.806;2023-08-12T02:09:22;3.25;;;2.53;;
77262;SDS011;66373;52.334;4.806;2023-08-12T02:11:50;2.55;;;2.30;;
77262;SDS011;66373;52.334;4.806;2023-08-12T02:14:18;2.60;;;2.30;;
77262;SDS011;66373;52.334;4.806;2023-08-12T02:16:45;2.92;;;2.20;;
77262;SDS011;66373;52.334;4.806;2023-08-12T02:19:12;2.45;;;2.25;;
77262;SDS011;66373;52.334;4.806;2023-08-12T02:21:40;4.32;;;2.28;;
77262;SDS011;66373;52.334;4.806;2023-08-12T02:24:08;3.22;;;2.30;;
77262;SDS011;66373;52.334;4.806;2023-08-12T02:26:37;2.92;;;2.33;;
77262;SDS011;66373;52.334;4.806;2023-08-12T02:29:04;2.40;;;2.20;;
77262;SDS011;66373;52.334;4.806;2023-08-12T02:31:33;3.30;;;2.15;;
77262;SDS011;66373;52.334;4.806;2023-08-12T02:34:01;2.58;;;2.35;;
77262;SDS011;66373;52.334;4.806;2023-08-12T02:36:29;2.47;;;2.17;;
77262;SDS011;66373;52.334;4.806;2023-08-12T02:38:56;2.53;;;2.08;;
77262;SDS011;66373;52.334;4.806;2023-08-12T02:41:23;3.17;;;2.08;;
77262;SDS011;66373;52.334;4.806;2023-08-12T02:43:50;2.20;;;2.03;;
77262;SDS011;66373;52.334;4.806;2023-08-12T02:46:17;3.40;;;2.40;;
77262;SDS011;66373;52.334;4.806;2023-08-12T02:48:45;2.25;;;2.05;;
77262;SDS011;66373;52.334;4.806;2023-08-12T02:51:13;2.45;;;2.25;;
77262;SDS011;66373;52.334;4.806;2023-08-12T02:53:41;2.20;;;1.90;;
77262;SDS011;66373;52.334;4.806;2023-08-12T02:56:08;3.10;;;2.10;;
77262;SDS011;66373;52.334;4.806;2023-08-12T02:58:35;3.53;;;2.60;;
77262;SDS011;66373;52.334;4.806;2023-08-12T03:01:03;2.95;;;2.20;;
77262;SDS011;66373;52.334;4.806;2023-08-12T03:03:30;3.10;;;2.10;;
77262;SDS011;66373;52.334;4.806;2023-08-12T03:05:59;2.97;;;2.10;;
77262;SDS011;66373;52.334;4.806;2023-08-12T03:08:28;1.88;;;1.77;;
77262;SDS011;66373;52.334;4.806;2023-08-12T03:10:58;2.30;;;2.10;;
77262;SDS011;66373;52.334;4.806;2023-08-12T03:13:26;3.20;;;2.60;;
77262;SDS011;66373;52.334;4.806;2023-08-12T03:15:53;2.22;;;2.03;;
77262;SDS011;66373;52.334;4.806;2023-08-12T03:18:20;2.05;;;1.95;;
77262;SDS011;66373;52.334;4.806;2023-08-12T03:20:49;2.25;;;1.77;;
77262;SDS011;66373;52.334;4.806;2023-08-12T03:23:18;2.45;;;2.10;;
77262;SDS011;66373;52.334;4.806;2023-08-12T03:25:46;2.78;;;2.20;;
77262;SDS011;66373;52.334;4.806;2023-08-12T03:28:14;2.33;;;2.13;;
77262;SDS011;66373;52.334;4.806;2023-08-12T03:30:41;2.55;;;1.95;;
77262;SDS011;66373;52.334;4.806;2023-08-12T03:33:09;3.38;;;2.63;;
77262;SDS011;66373;52.334;4.806;2023-08-12T03:35:37;4.55;;;2.40;;
77262;SDS011;66373;52.334;4.806;2023-08-12T03:38:04;2.22;;;2.00;;
77262;SDS011;66373;52.334;4.806;2023-08-12T03:40:33;2.47;;;2.20;;
77262;SDS011;66373;52.334;4.806;2023-08-12T03:43:04;2.08;;;1.90;;
77262;SDS011;66373;52.334;4.806;2023-08-12T03:45:31;1.77;;;1.67;;
77262;SDS011;66373;52.334;4.806;2023-08-12T03:47:58;2.45;;;2.25;;
77262;SDS011;66373;52.334;4.806;2023-08-12T03:50:26;4.13;;;2.28;;
77262;SDS011;66373;52.334;4.806;2023-08-12T03:52:53;3.13;;;2.17;;
77262;SDS011;66373;52.334;4.806;2023-08-12T03:55:20;5.00;;;2.50;;
77262;SDS011;66373;52.334;4.806;2023-08-12T03:57:48;3.60;;;2.25;;
77262;SDS011;66373;52.334;4.806;2023-08-12T04:00:15;3.83;;;2.10;;
77262;SDS011;66373;52.334;4.806;2023-08-12T04:02:42;2.55;;;2.10;;
77262;SDS011;66373;52.334;4.806;2023-08-12T04:05:09;2.33;;;2.13;;
77262;SDS011;66373;52.334;4.806;2023-08-12T04:07:36;2.10;;;1.90;;
77262;SDS011;66373;52.334;4.806;2023-08-12T04:10:04;2.75;;;2.13;;
77262;SDS011;66373;52.334;4.806;2023-08-12T04:12:31;2.20;;;2.00;;
77262;SDS011;66373;52.334;4.806;2023-08-12T04:15:00;2.72;;;2.20;;
77262;SDS011;66373;52.334;4.806;2023-08-12T04:17:30;3.38;;;2.42;;
77262;SDS011;66373;52.334;4.806;2023-08-12T04:19:58;4.13;;;2.25;;
77262;SDS011;66373;52.334;4.806;2023-08-12T04:22:25;4.13;;;2.35;;
77262;SDS011;66373;52.334;4.806;2023-08-12T04:24:53;3.13;;;2.28;;
77262;SDS011;66373;52.334;4.806;2023-08-12T04:27:21;3.65;;;1.98;;
77262;SDS011;66373;52.334;4.806;2023-08-12T04:29:48;1.90;;;1.80;;
77262;SDS011;66373;52.334;4.806;2023-08-12T04:32:16;2.60;;;2.40;;
77262;SDS011;66373;52.334;4.806;2023-08-12T04:34:44;3.80;;;2.30;;
77262;SDS011;66373;52.334;4.806;2023-08-12T04:37:13;3.20;;;2.30;;
77262;SDS011;66373;52.334;4.806;2023-08-12T04:39:42;4.13;;;2.25;;
77262;SDS011;66373;52.334;4.806;2023-08-12T04:42:11;2.92;;;2.10;;
77262;SDS011;66373;52.334;4.806;2023-08-12T04:44:38;2.10;;;2.00;;
77262;SDS011;66373;52.334;4.806;2023-08-12T04:47:06;3.13;;;2.25;;
77262;SDS011;66373;52.334;4.806;2023-08-12T04:49:37;4.10;;;2.10;;
77262;SDS011;66373;52.334;4.806;2023-08-12T04:52:04;2.47;;;2.22;;
77262;SDS011;66373;52.334;4.806;2023-08-12T04:54:32;2.90;;;2.45;;
77262;SDS011;66373;52.334;4.806;2023-08-12T04:56:59;3.20;;;2.03;;
77262;SDS011;66373;52.334;4.806;2023-08-12T04:59:26;2.63;;;2.40;;
77262;SDS011;66373;52.334;4.806;2023-08-12T05:01:53;5.30;;;2.63;;
77262;SDS011;66373;52.334;4.806;2023-08-12T05:04:21;4.80;;;2.17;;
77262;SDS011;66373;52.334;4.806;2023-08-12T05:06:49;4.65;;;2.25;;
77262;SDS011;66373;52.334;4.806;2023-08-12T05:09:17;3.00;;;2.35;;
77262;SDS011;66373;52.334;4.806;2023-08-12T05:11:44;3.83;;;2.30;;
77262;SDS011;66373;52.334;4.806;2023-08-12T05:14:11;4.03;;;2.40;;
77262;SDS011;66373;52.334;4.806;2023-08-12T05:16:38;2.88;;;2.50;;
77262;SDS011;66373;52.334;4.806;2023-08-12T05:19:05;2.42;;;2.22;;
77262;SDS011;66373;52.334;4.806;2023-08-12T05:21:33;2.92;;;2.13;;
77262;SDS011;66373;52.334;4.806;2023-08-12T05:24:01;3.05;;;2.20;;
77262;SDS011;66373;52.334;4.806;2023-08-12T05:26:29;2.30;;;2.08;;
77262;SDS011;66373;52.334;4.806;2023-08-12T05:28:56;2.42;;;2.22;;
77262;SDS011;66373;52.334;4.806;2023-08-12T05:31:23;4.50;;;2.20;;
77262;SDS011;66373;52.334;4.806;2023-08-12T05:33:51;2.45;;;2.20;;
77262;SDS011;66373;52.334;4.806;2023-08-12T05:36:18;2.33;;;2.13;;
77262;SDS011;66373;52.334;4.806;2023-08-12T05:38:45;2.55;;;2.30;;
77262;SDS011;66373;52.334;4.806;2023-08-12T05:41:13;3.47;;;2.72;;
77262;SDS011;66373;52.334;4.806;2023-08-12T05:43:40;3.22;;;2.35;;
77262;SDS011;66373;52.334;4.806;2023-08-12T05:46:07;3.00;;;2.53;;
77262;SDS011;66373;52.334;4.806;2023-08-12T05:48:34;2.38;;;2.17;;
77262;SDS011;66373;52.334;4.806;2023-08-12T05:51:01;2.25;;;2.05;;
77262;SDS011;66373;52.334;4.806;2023-08-12T05:53:28;3.85;;;2.38;;
77262;SDS011;66373;52.334;4.806;2023-08-12T05:55:55;2.78;;;2.30;;
77262;SDS011;66373;52.334;4.806;2023-08-12T05:58:24;2.33;;;2.22;;
77262;SDS011;66373;52.334;4.806;2023-08-12T06:00:51;3.40;;;2.33;;
77262;SDS011;66373;52.334;4.806;2023-08-12T06:03:18;2.60;;;2.17;;
77262;SDS011;66373;52.334;4.806;2023-08-12T06:05:45;2.40;;;2.20;;
77262;SDS011;66373;52.334;4.806;2023-08-12T06:08:13;2.50;;;2.30;;
77262;SDS011;66373;52.334;4.806;2023-08-12T06:10:40;2.40;;;2.20;;
77262;SDS011;66373;52.334;4.806;2023-08-12T06:13:07;3.45;;;2.55;;
77262;SDS011;66373;52.334;4.806;2023-08-12T06:15:36;2.50;;;2.30;;
77262;SDS011;66373;52.334;4.806;2023-08-12T06:18:03;3.40;;;2.20;;
77262;SDS011;66373;52.334;4.806;2023-08-12T06:20:30;2.40;;;2.08;;
77262;SDS011;66373;52.334;4.806;2023-08-12T06:22:58;3.70;;;2.35;;
77262;SDS011;66373;52.334;4.806;2023-08-12T06:25:25;2.30;;;2.10;;
77262;SDS011;66373;52.334;4.806;2023-08-12T06:27:52;2.75;;;2.55;;
77262;SDS011;66373;52.334;4.806;2023-08-12T06:30:19;3.33;;;2.40;;
77262;SDS011;66373;52.334;4.806;2023-08-12T06:32:47;4.07;;;2.58;;
77262;SDS011;66373;52.334;4.806;2023-08-12T06:35:14;3.45;;;2.63;;
77262;SDS011;66373;52.334;4.806;2023-08-12T06:37:41;2.80;;;2.53;;
77262;SDS011;66373;52.334;4.806;2023-08-12T06:40:09;2.88;;;2.30;;
77262;SDS011;66373;52.334;4.806;2023-08-12T06:42:36;3.42;;;2.50;;
77262;SDS011;66373;52.334;4.806;2023-08-12T06:45:03;2.88;;;2.45;;
77262;SDS011;66373;52.334;4.806;2023-08-12T06:47:31;3.10;;;2.63;;
77262;SDS011;66373;52.334;4.806;2023-08-12T06:50:00;2.58;;;2.38;;
77262;SDS011;66373;52.334;4.806;2023-08-12T06:52:27;3.83;;;2.80;;
77262;SDS011;66373;52.334;4.806;2023-08-12T06:54:54;4.05;;;2.58;;
77262;SDS011;66373;52.334;4.806;2023-08-12T06:57:21;2.60;;;2.40;;
77262;SDS011;66373;52.334;4.806;2023-08-12T06:59:48;3.13;;;2.40;;
77262;SDS011;66373;52.334;4.806;2023-08-12T07:02:15;3.08;;;2.60;;
77262;SDS011;66373;52.334;4.806;2023-08-12T07:04:42;3.30;;;2.95;;
77262;SDS011;66373;52.334;4.806;2023-08-12T07:07:10;3.85;;;2.85;;
77262;SDS011;66373;52.334;4.806;2023-08-12T07:09:37;3.08;;;2.78;;
77262;SDS011;66373;52.334;4.806;2023-08-12T07:12:05;3.42;;;3.00;;
77262;SDS011;66373;52.334;4.806;2023-08-12T07:14:32;4.07;;;2.90;;
77262;SDS011;66373;52.334;4.806;2023-08-12T07:17:02;3.50;;;3.17;;
77262;SDS011;66373;52.334;4.806;2023-08-12T07:19:29;3.30;;;2.90;;
77262;SDS011;66373;52.334;4.806;2023-08-12T07:21:56;2.95;;;2.58;;
77262;SDS011;66373;52.334;4.806;2023-08-12T07:24:24;4.20;;;3.03;;
77262;SDS011;66373;52.334;4.806;2023-08-12T07:26:51;3.53;;;3.03;;
77262;SDS011;66373;52.334;4.806;2023-08-12T07:29:18;4.88;;;2.92;;
77262;SDS011;66373;52.334;4.806;2023-08-12T07:31:45;3.20;;;3.00;;
77262;SDS011;66373;52.334;4.806;2023-08-12T07:34:12;4.28;;;2.92;;
77262;SDS011;66373;52.334;4.806;2023-08-12T07:36:39;3.42;;;3.10;;
77262;SDS011;66373;52.334;4.806;2023-08-12T07:39:07;3.47;;;3.03;;
77262;SDS011;66373;52.334;4.806;2023-08-12T07:41:35;3.95;;;3.15;;
77262;SDS011;66373;52.334;4.806;2023-08-12T07:44:03;3.67;;;3.13;;
77262;SDS011;66373;52.334;4.806;2023-08-12T07:46:30;4.32;;;3.10;;
77262;SDS011;66373;52.334;4.806;2023-08-12T07:48:57;6.05;;;3.60;;
77262;SDS011;66373;52.334;4.806;2023-08-12T07:51:24;5.10;;;3.17;;
77262;SDS011;66373;52.334;4.806;2023-08-12T07:53:51;4.85;;;3.45;;
77262;SDS011;66373;52.334;4.806;2023-08-12T07:56:18;4.28;;;3.42;;
77262;SDS011;66373;52.334;4.806;2023-08-12T07:58:47;4.80;;;3.75;;
77262;SDS011;66373;52.334;4.806;2023-08-12T08:01:14;4.10;;;3.70;;
77262;SDS011;66373;52.334;4.806;2023-08-12T08:03:41;3.38;;;3.10;;
77262;SDS011;66373;52.334;4.806;2023-08-12T08:06:08;5.13;;;3.40;;
77262;SDS011;66373;52.334;4.806;2023-08-12T08:08:35;4.00;;;3.10;;
77262;SDS011;66373;52.334;4.806;2023-08-12T08:11:02;4.75;;;3.30;;
77262;SDS011;66373;52.334;4.806;2023-08-12T08:13:29;3.45;;;2.95;;
77262;SDS011;66373;52.334;4.806;2023-08-12T08:15:57;4.82;;;3.50;;
77262;SDS011;66373;52.334;4.806;2023-08-12T08:18:24;4.43;;;3.03;;
77262;SDS011;66373;52.334;4.806;2023-08-12T08:20:51;3.72;;;3.00;;
77262;SDS011;66373;52.334;4.806;2023-08-12T08:23:19;3.55;;;3.10;;
77262;SDS011;66373;52.334;4.806;2023-08-12T08:25:46;4.05;;;3.20;;
77262;SDS011;66373;52.334;4.806;2023-08-12T08:28:13;4.10;;;3.28;;
77262;SDS011;66373;52.334;4.806;2023-08-12T08:30:40;3.40;;;3.10;;
77262;SDS011;66373;52.334;4.806;2023-08-12T08:33:08;4.00;;;3.20;;
77262;SDS011;66373;52.334;4.806;2023-08-12T08:38:05;5.28;;;2.78;;
77262;SDS011;66373;52.334;4.806;2023-08-12T08:40:32;4.03;;;2.95;;
77262;SDS011;66373;52.334;4.806;2023-08-12T08:43:00;5.63;;;3.15;;
77262;SDS011;66373;52.334;4.806;2023-08-12T08:45:30;6.40;;;3.20;;
77262;SDS011;66373;52.334;4.806;2023-08-12T08:48:01;6.07;;;3.17;;
77262;SDS011;66373;52.334;4.806;2023-08-12T08:51:21;4.65;;;2.65;;
77262;SDS011;66373;52.334;4.806;2023-08-12T08:53:49;3.78;;;2.88;;
77262;SDS011;66373;52.334;4.806;2023-08-12T08:56:16;3.60;;;2.75;;
77262;SDS011;66373;52.334;4.806;2023-08-12T08:58:43;3.47;;;2.50;;
77262;SDS011;66373;52.334;4.806;2023-08-12T09:01:10;9.80;;;3.13;;
77262;SDS011;66373;52.334;4.806;2023-08-12T09:03:38;2.42;;;2.22;;
77262;SDS011;66373;52.334;4.806;2023-08-12T09:06:06;4.82;;;2.22;;
77262;SDS011;66373;52.334;4.806;2023-08-12T09:08:35;4.45;;;2.50;;
77262;SDS011;66373;52.334;4.806;2023-08-12T09:11:04;2.30;;;2.10;;
77262;SDS011;66373;52.334;4.806;2023-08-12T09:13:32;4.00;;;2.50;;
77262;SDS011;66373;52.334;4.806;2023-08-12T09:15:59;3.67;;;2.15;;
77262;SDS011;66373;52.334;4.806;2023-08-12T09:18:26;3.88;;;1.90;;
77262;SDS011;66373;52.334;4.806;2023-08-12T09:20:56;4.10;;;2.30;;
77262;SDS011;66373;52.334;4.806;2023-08-12T09:23:25;4.35;;;2.20;;
77262;SDS011;66373;52.334;4.806;2023-08-12T09:25:54;3.15;;;2.03;;
77262;SDS011;66373;52.334;4.806;2023-08-12T09:28:21;3.72;;;2.28;;
77262;SDS011;66373;52.334;4.806;2023-08-12T09:30:51;4.60;;;2.00;;
77262;SDS011;66373;52.334;4.806;2023-08-12T09:33:23;3.00;;;1.95;;
77262;SDS011;66373;52.334;4.806;2023-08-12T09:35:51;2.78;;;1.95;;
77262;SDS011;66373;52.334;4.806;2023-08-12T09:38:18;2.65;;;2.10;;
77262;SDS011;66373;52.334;4.806;2023-08-12T09:40:46;5.55;;;2.28;;
77262;SDS011;66373;52.334;4.806;2023-08-12T09:43:15;3.15;;;2.03;;
77262;SDS011;66373;52.334;4.806;2023-08-12T09:45:43;2.10;;;1.90;;
77262;SDS011;66373;52.334;4.806;2023-08-12T09:48:11;3.38;;;1.95;;
77262;SDS011;66373;52.334;4.806;2023-08-12T09:50:38;5.40;;;2.10;;
77262;SDS011;66373;52.334;4.806;2023-08-12T09:53:06;5.40;;;2.53;;
77262;SDS011;66373;52.334;4.806;2023-08-12T09:55:33;4.18;;;2.13;;
77262;SDS011;66373;52.334;4.806;2023-08-12T09:58:03;4.63;;;2.47;;
77262;SDS011;66373;52.334;4.806;2023-08-12T10:00:34;4.50;;;2.45;;
77262;SDS011;66373;52.334;4.806;2023-08-12T10:03:02;2.95;;;2.15;;
77262;SDS011;66373;52.334;4.806;2023-08-12T10:05:31;2.90;;;2.08;;
77262;SDS011;66373;52.334;4.806;2023-08-12T10:07:59;2.17;;;1.90;;
77262;SDS011;66373;52.334;4.806;2023-08-12T10:10:28;2.15;;;1.70;;
77262;SDS011;66373;52.334;4.806;2023-08-12T10:12:57;4.18;;;2.05;;
77262;SDS011;66373;52.334;4.806;2023-08-12T10:15:25;2.10;;;1.90;;
77262;SDS011;66373;52.334;4.806;2023-08-12T10:17:55;2.75;;;2.10;;
77262;SDS011;66373;52.334;4.806;2023-08-12T10:20:24;2.55;;;1.80;;
77262;SDS011;66373;52.334;4.806;2023-08-12T10:22:52;3.08;;;1.70;;
77262;SDS011;66373;52.334;4.806;2023-08-12T10:25:21;3.60;;;2.28;;
77262;SDS011;66373;52.334;4.806;2023-08-12T10:27:48;2.95;;;1.73;;
77262;SDS011;66373;52.334;4.806;2023-08-12T10:30:20;1.95;;;1.75;;
77262;SDS011;66373;52.334;4.806;2023-08-12T10:35:15;2.50;;;2.10;;
77262;SDS011;66373;52.334;4.806;2023-08-12T10:37:42;2.80;;;1.65;;
77262;SDS011;66373;52.334;4.806;2023-08-12T10:40:20;4.95;;;2.03;;
77262;SDS011;66373;52.334;4.806;2023-08-12T10:42:49;5.18;;;1.85;;
77262;SDS011;66373;52.334;4.806;2023-08-12T10:45:17;5.10;;;2.13;;
77262;SDS011;66373;52.334;4.806;2023-08-12T10:47:48;4.57;;;1.85;;
77262;SDS011;66373;52.334;4.806;2023-08-12T10:50:19;5.13;;;2.40;;
77262;SDS011;66373;52.334;4.806;2023-08-12T10:52:47;5.53;;;2.25;;
77262;SDS011;66373;52.334;4.806;2023-08-12T10:55:21;5.20;;;1.85;;
77262;SDS011;66373;52.334;4.806;2023-08-12T10:57:48;2.75;;;2.20;;
77262;SDS011;66373;52.334;4.806;2023-08-12T11:00:17;6.78;;;2.03;;
77262;SDS011;66373;52.334;4.806;2023-08-12T11:02:49;6.13;;;2.30;;
77262;SDS011;66373;52.334;4.806;2023-08-12T11:05:19;5.20;;;2.30;;
77262;SDS011;66373;52.334;4.806;2023-08-12T11:07:48;3.13;;;1.85;;
77262;SDS011;66373;52.334;4.806;2023-08-12T11:10:23;3.40;;;1.92;;
77262;SDS011;66373;52.334;4.806;2023-08-12T11:13:15;5.63;;;2.45;;
77262;SDS011;66373;52.334;4.806;2023-08-12T11:15:43;5.20;;;2.22;;
77262;SDS011;66373;52.334;4.806;2023-08-12T11:18:15;5.63;;;2.45;;
77262;SDS011;66373;52.334;4.806;2023-08-12T11:20:51;6.80;;;2.05;;
77262;SDS011;66373;52.334;4.806;2023-08-12T11:23:20;4.15;;;2.30;;
77262;SDS011;66373;52.334;4.806;2023-08-12T11:25:47;4.75;;;2.40;;
77262;SDS011;66373;52.334;4.806;2023-08-12T11:28:17;8.95;;;2.70;;
77262;SDS011;66373;52.334;4.806;2023-08-12T11:30:45;5.28;;;2.30;;
77262;SDS011;66373;52.334;4.806;2023-08-12T11:33:12;5.28;;;2.28;;
77262;SDS011;66373;52.334;4.806;2023-08-12T11:35:43;4.95;;;2.10;;
77262;SDS011;66373;52.334;4.806;2023-08-12T11:38:12;6.53;;;2.17;;
77262;SDS011;66373;52.334;4.806;2023-08-12T11:40:42;3.35;;;1.90;;
77262;SDS011;66373;52.334;4.806;2023-08-12T11:43:13;6.75;;;2.30;;
77262;SDS011;66373;52.334;4.806;2023-08-12T11:45:41;3.97;;;2.15;;
77262;SDS011;66373;52.334;4.806;2023-08-12T11:48:09;4.45;;;1.95;;
77262;SDS011;66373;52.334;4.806;2023-08-12T11:50:36;4.70;;;2.28;;
77262;SDS011;66373;52.334;4.806;2023-08-12T11:53:04;4.20;;;2.45;;
77262;SDS011;66373;52.334;4.806;2023-08-12T11:55:36;3.40;;;2.08;;
77262;SDS011;66373;52.334;4.806;2023-08-12T11:58:03;6.22;;;2.50;;
77262;SDS011;66373;52.334;4.806;2023-08-12T12:00:31;6.20;;;2.30;;
77262;SDS011;66373;52.334;4.806;2023-08-12T12:02:59;5.30;;;2.72;;
77262;SDS011;66373;52.334;4.806;2023-08-12T12:05:29;4.30;;;2.30;;
77262;SDS011;66373;52.334;4.806;2023-08-12T12:07:58;4.95;;;2.30;;
77262;SDS011;66373;52.334;4.806;2023-08-12T12:10:29;5.03;;;2.20;;
77262;SDS011;66373;52.334;4.806;2023-08-12T12:12:58;5.05;;;2.30;;
77262;SDS011;66373;52.334;4.806;2023-08-12T12:15:26;5.78;;;2.40;;
77262;SDS011;66373;52.334;4.806;2023-08-12T12:17:53;6.18;;;2.00;;
77262;SDS011;66373;52.334;4.806;2023-08-12T12:20:21;3.92;;;2.40;;
77262;SDS011;66373;52.334;4.806;2023-08-12T12:22:48;6.53;;;2.25;;
77262;SDS011;66373;52.334;4.806;2023-08-12T12:25:16;4.57;;;2.30;;
77262;SDS011;66373;52.334;4.806;2023-08-12T12:27:46;5.18;;;2.28;;
77262;SDS011;66373;52.334;4.806;2023-08-12T12:30:16;8.18;;;2.42;;
77262;SDS011;66373;52.334;4.806;2023-08-12T12:32:44;3.80;;;1.90;;
77262;SDS011;66373;52.334;4.806;2023-08-12T12:35:11;4.80;;;2.45;;
77262;SDS011;66373;52.334;4.806;2023-08-12T12:37:38;5.20;;;2.28;;
77262;SDS011;66373;52.334;4.806;2023-08-12T12:40:06;4.88;;;2.17;;
77262;SDS011;66373;52.334;4.806;2023-08-12T12:42:35;3.40;;;2.35;;
77262;SDS011;66373;52.334;4.806;2023-08-12T12:45:04;4.43;;;2.13;;
77262;SDS011;66373;52.334;4.806;2023-08-12T12:47:33;4.07;;;2.33;;
77262;SDS011;66373;52.334;4.806;2023-08-12T12:50:00;4.40;;;2.10;;
77262;SDS011;66373;52.334;4.806;2023-08-12T12:52:27;7.35;;;2.38;;
77262;SDS011;66373;52.334;4.806;2023-08-12T12:54:54;7.57;;;2.33;;
77262;SDS011;66373;52.334;4.806;2023-08-12T12:57:22;3.75;;;2.08;;
77262;SDS011;66373;52.334;4.806;2023-08-12T12:59:49;5.00;;;2.30;;
77262;SDS011;66373;52.334;4.806;2023-08-12T13:02:17;5.05;;;2.15;;
77262;SDS011;66373;52.334;4.806;2023-08-12T13:04:51;7.07;;;2.30;;
77262;SDS011;66373;52.334;4.806;2023-08-12T13:07:18;3.40;;;2.35;;
77262;SDS011;66373;52.334;4.806;2023-08-12T13:09:45;4.38;;;2.00;;
77262;SDS011;66373;52.334;4.806;2023-08-12T13:12:46;3.22;;;2.10;;
77262;SDS011;66373;52.334;4.806;2023-08-12T13:15:14;6.72;;;2.25;;
77262;SDS011;66373;52.334;4.806;2023-08-12T13:17:41;7.45;;;2.35;;
77262;SDS011;66373;52.334;4.806;2023-08-12T13:20:11;5.28;;;2.53;;
77262;SDS011;66373;52.334;4.806;2023-08-12T13:22:38;4.18;;;2.15;;
77262;SDS011;66373;52.334;4.806;2023-08-12T13:25:14;5.55;;;2.80;;
77262;SDS011;66373;52.334;4.806;2023-08-12T13:27:41;5.25;;;1.90;;
77262;SDS011;66373;52.334;4.806;2023-08-12T13:30:08;6.07;;;2.45;;
77262;SDS011;66373;52.334;4.806;2023-08-12T13:32:36;5.47;;;2.20;;
77262;SDS011;66373;52.334;4.806;2023-08-12T13:35:03;5.82;;;2.85;;
77262;SDS011;66373;52.334;4.806;2023-08-12T13:37:33;5.93;;;2.10;;
77262;SDS011;66373;52.334;4.806;2023-08-12T13:40:00;6.47;;;2.05;;
77262;SDS011;66373;52.334;4.806;2023-08-12T13:42:28;5.10;;;2.78;;
77262;SDS011;66373;52.334;4.806;2023-08-12T13:44:55;7.72;;;2.45;;
77262;SDS011;66373;52.334;4.806;2023-08-12T13:47:22;5.78;;;2.45;;
77262;SDS011;66373;52.334;4.806;2023-08-12T13:49:49;6.10;;;2.30;;
77262;SDS011;66373;52.334;4.806;2023-08-12T13:52:16;6.57;;;2.70;;
77262;SDS011;66373;52.334;4.806;2023-08-12T13:54:45;4.85;;;2.10;;
77262;SDS011;66373;52.334;4.806;2023-08-12T13:57:12;6.90;;;2.38;;
77262;SDS011;66373;52.334;4.806;2023-08-12T13:59:39;4.75;;;2.25;;
77262;SDS011;66373;52.334;4.806;2023-08-12T14:02:09;4.55;;;2.42;;
77262;SDS011;66373;52.334;4.806;2023-08-12T14:04:36;4.28;;;2.20;;
77262;SDS011;66373;52.334;4.806;2023-08-12T14:07:03;5.78;;;2.35;;
77262;SDS011;66373;52.334;4.806;2023-08-12T14:09:31;5.50;;;2.53;;
77262;SDS011;66373;52.334;4.806;2023-08-12T14:11:59;6.82;;;2.63;;
77262;SDS011;66373;52.334;4.806;2023-08-12T14:14:26;6.88;;;2.30;;
77262;SDS011;66373;52.334;4.806;2023-08-12T14:16:56;7.00;;;2.70;;
77262;SDS011;66373;52.334;4.806;2023-08-12T14:19:23;7.03;;;2.28;;
77262;SDS011;66373;52.334;4.806;2023-08-12T14:21:50;4.45;;;2.40;;
77262;SDS011;66373;52.334;4.806;2023-08-12T14:24:17;3.78;;;2.15;;
77262;SDS011;66373;52.334;4.806;2023-08-12T14:26:44;5.22;;;2.35;;
77262;SDS011;66373;52.334;4.806;2023-08-12T14:29:12;7.75;;;2.70;;
77262;SDS011;66373;52.334;4.806;2023-08-12T14:31:39;8.93;;;2.63;;
77262;SDS011;66373;52.334;4.806;2023-08-12T14:34:06;7.47;;;2.83;;
77262;SDS011;66373;52.334;4.806;2023-08-12T14:36:33;7.13;;;2.80;;
77262;SDS011;66373;52.334;4.806;2023-08-12T14:39:01;5.03;;;2.40;;
77262;SDS011;66373;52.334;4.806;2023-08-12T14:41:28;6.13;;;2.70;;
77262;SDS011;66373;52.334;4.806;2023-08-12T14:43:55;6.00;;;2.55;;
77262;SDS011;66373;52.334;4.806;2023-08-12T14:46:23;5.88;;;2.78;;
77262;SDS011;66373;52.334;4.806;2023-08-12T14:48:51;6.20;;;2.33;;
77262;SDS011;66373;52.334;4.806;2023-08-12T14:51:19;7.28;;;2.58;;
77262;SDS011;66373;52.334;4.806;2023-08-12T14:53:46;8.50;;;2.65;;
77262;SDS011;66373;52.334;4.806;2023-08-12T14:56:13;11.10;;;2.85;;
77262;SDS011;66373;52.334;4.806;2023-08-12T14:58:42;7.22;;;2.85;;
77262;SDS011;66373;52.334;4.806;2023-08-12T15:01:09;7.13;;;2.60;;
77262;SDS011;66373;52.334;4.806;2023-08-12T15:03:39;6.20;;;2.40;;